Terminal Aerodrome Forecast
Issued by NWS

Home | Current Version | Previous Version | Graphics & Text | Print | Product List | Glossary On
Versions: 1 2 3 4 5 6 7 8 9 10 11 12 13 14 15 16 17 18 19 20
680
FTUS43 KBIS 221615 AAA
TAFDIK
TAF AMD
KDIK 221615Z 2216/2312 22017G24KT P6SM OVC080 WS020/26030KT
     FM221900 25019G28KT P6SM VCSH BKN050 OVC070
     FM230100 26018G26KT P6SM SCT110 WS020/27045KT
     FM230800 28019G28KT P6SM SCT070 WS020/30040KT=

USA.gov is the U.S. government's official web portal to all federal, state and local government web resources and services.